Time;durP1;ratioP1;P1;durP2;ratioP2;P2;SDS_P1;SDS_P2;PMS_P1;PMS_P2;Temp;Humidity;BMP_temperature;BMP_pressure;BME280_temperature;BME280_humidity;BME280_pressure;Samples;Min_cycle;Max_cycle;Signal;HPM_P1;HPM_P2
2024/02/15 00:01:46;;;;;;;16.60;3.05;;;24.00;46.40;;;;;;5062403;28;20085;-57
2024/02/15 00:04:12;;;;;;;15.82;3.60;;;23.70;47.00;;;;;;5062968;28;20077;-57
2024/02/15 00:06:38;;;;;;;14.70;3.70;;;23.70;46.80;;;;;;5060419;28;20080;-59
2024/02/15 00:09:05;;;;;;;14.85;3.70;;;23.70;46.80;;;;;;5059595;28;20088;-58
2024/02/15 00:11:32;;;;;;;11.40;3.25;;;23.60;47.60;;;;;;5057879;28;20074;-57
2024/02/15 00:13:58;;;;;;;6.57;3.15;;;23.50;47.20;;;;;;5063703;28;20532;-57
2024/02/15 00:16:27;;;;;;;14.80;3.70;;;23.50;47.30;;;;;;5062045;28;20582;-58
2024/02/15 00:18:55;;;;;;;23.27;3.58;;;23.50;47.90;;;;;;5059202;28;20111;-59
2024/02/15 00:21:22;;;;;;;9.52;3.38;;;23.50;47.70;;;;;;5062065;28;20100;-59
2024/02/15 00:23:49;;;;;;;6.47;3.38;;;23.50;47.80;;;;;;5067676;28;20167;-59
2024/02/15 00:26:16;;;;;;;17.23;3.95;;;23.40;48.10;;;;;;5065624;28;20104;-59
2024/02/15 00:28:42;;;;;;;12.35;3.47;;;23.40;48.10;;;;;;5061918;28;20081;-60
2024/02/15 00:31:09;;;;;;;16.02;3.28;;;23.20;48.10;;;;;;5067080;28;20077;-58
2024/02/15 00:33:36;;;;;;;16.92;5.95;;;23.10;48.40;;;;;;5061456;28;20100;-60
2024/02/15 00:36:04;;;;;;;10.05;3.33;;;23.10;48.90;;;;;;5062906;28;20080;-59
2024/02/15 00:38:32;;;;;;;12.18;3.60;;;23.10;49.00;;;;;;5061432;28;20615;-60
2024/02/15 00:40:59;;;;;;;14.10;3.40;;;23.10;49.10;;;;;;5061256;28;20066;-60
2024/02/15 00:43:27;;;;;;;16.30;3.58;;;23.10;48.70;;;;;;5063429;28;20085;-60
2024/02/15 00:45:54;;;;;;;12.55;3.38;;;23.40;48.80;;;;;;5061204;28;20074;-60
2024/02/15 00:48:21;;;;;;;11.88;3.58;;;23.80;47.80;;;;;;5064794;28;20201;-60
2024/02/15 00:50:48;;;;;;;16.27;3.88;;;24.10;47.20;;;;;;5061480;28;20077;-59
2024/02/15 00:53:16;;;;;;;17.65;3.00;;;23.50;48.30;;;;;;5061151;28;20507;-59
2024/02/15 00:55:43;;;;;;;10.30;2.80;;;22.90;49.30;;;;;;5061738;28;20548;-59
2024/02/15 00:58:09;;;;;;;12.32;3.10;;;22.60;50.00;;;;;;5062873;28;20533;-60
2024/02/15 01:00:35;;;;;;;7.85;2.83;;;22.30;50.40;;;;;;5062571;28;20065;-60
2024/02/15 01:03:02;;;;;;;11.27;2.53;;;22.10;50.80;;;;;;5062477;28;20077;-60
2024/02/15 01:05:30;;;;;;;29.42;4.15;;;21.90;51.00;;;;;;5064799;28;20069;-58
2024/02/15 01:07:57;;;;;;;9.57;3.67;;;21.80;52.00;;;;;;5060616;28;20070;-57
2024/02/15 01:10:24;;;;;;;16.38;3.58;;;21.70;52.00;;;;;;5061744;28;20077;-60
2024/02/15 01:12:50;;;;;;;19.73;3.00;;;21.60;52.50;;;;;;5063059;28;20085;-60
2024/02/15 01:15:18;;;;;;;28.33;3.83;;;21.50;52.80;;;;;;5061200;28;20092;-59
2024/02/15 01:17:45;;;;;;;20.83;5.18;;;21.30;53.50;;;;;;5061594;28;20069;-59
2024/02/15 01:20:11;;;;;;;17.30;4.60;;;21.20;54.00;;;;;;5061158;28;20096;-59
2024/02/15 01:22:38;;;;;;;30.33;4.88;;;21.10;54.60;;;;;;5062826;28;20084;-59
2024/02/15 01:25:06;;;;;;;30.23;5.40;;;20.80;55.10;;;;;;5059404;28;20160;-59
2024/02/15 01:27:33;;;;;;;19.92;5.35;;;20.70;55.60;;;;;;5055472;28;20081;-59
2024/02/15 01:30:00;;;;;;;21.45;7.20;;;20.50;56.40;;;;;;5063945;28;20397;-60
2024/02/15 01:32:26;;;;;;;32.08;7.05;;;20.30;56.90;;;;;;5059601;28;20142;-60
2024/02/15 01:34:54;;;;;;;43.42;7.18;;;20.10;57.40;;;;;;5060651;28;20069;-59
2024/02/15 01:37:21;;;;;;;33.47;6.65;;;20.00;58.10;;;;;;5059865;28;20188;-59
2024/02/15 01:39:48;;;;;;;27.45;7.32;;;19.80;58.50;;;;;;5060954;28;20863;-59
2024/02/15 01:42:14;;;;;;;42.28;20.77;;;19.70;59.00;;;;;;5059316;28;20460;-59
2024/02/15 01:44:43;;;;;;;58.95;21.25;;;19.60;61.00;;;;;;5057089;28;20183;-58
2024/02/15 01:47:11;;;;;;;37.00;11.73;;;19.50;62.20;;;;;;5058051;28;20075;-58
2024/02/15 01:49:38;;;;;;;26.75;5.60;;;19.40;64.60;;;;;;5063561;28;20633;-58
2024/02/15 01:52:08;;;;;;;28.65;6.32;;;19.40;65.90;;;;;;5059267;28;20200;-60
2024/02/15 01:54:39;;;;;;;32.42;5.60;;;19.30;66.50;;;;;;5062712;28;20084;-59
2024/02/15 01:57:06;;;;;;;36.47;5.50;;;19.30;67.60;;;;;;5063655;28;20101;-59
2024/02/15 01:59:32;;;;;;;24.10;5.63;;;19.20;68.60;;;;;;5063820;28;20131;-59
2024/02/15 02:01:59;;;;;;;36.25;4.90;;;19.20;69.60;;;;;;5057937;28;20126;-59
2024/02/15 02:04:26;;;;;;;25.98;4.57;;;19.20;70.00;;;;;;5064919;28;20074;-59
2024/02/15 02:06:58;;;;;;;33.80;5.43;;;19.10;70.60;;;;;;5063158;28;20085;-60
2024/02/15 02:09:25;;;;;;;39.28;5.70;;;19.00;70.60;;;;;;5063144;28;20160;-60
2024/02/15 02:11:52;;;;;;;40.10;6.88;;;19.00;71.00;;;;;;5062058;28;20073;-59
2024/02/15 02:14:20;;;;;;;34.95;6.95;;;18.90;71.60;;;;;;5060944;28;20077;-58
2024/02/15 02:16:47;;;;;;;40.15;8.20;;;18.90;72.00;;;;;;5060799;28;20723;-59
2024/02/15 02:19:13;;;;;;;43.70;8.52;;;18.80;72.50;;;;;;5059842;28;20100;-58
2024/02/15 02:21:40;;;;;;;54.45;8.48;;;18.70;72.80;;;;;;5059377;28;20431;-58
2024/02/15 02:24:13;;;;;;;46.40;7.80;;;18.70;73.20;;;;;;5062930;28;20108;-58
2024/02/15 02:26:40;;;;;;;63.55;7.85;;;18.60;73.70;;;;;;5058346;28;20078;-58
2024/02/15 02:29:08;;;;;;;56.92;8.88;;;18.60;73.90;;;;;;5059104;28;20069;-58
2024/02/15 02:31:35;;;;;;;42.95;7.22;;;18.50;74.00;;;;;;5059568;28;20608;-58
2024/02/15 02:34:02;;;;;;;54.65;7.95;;;18.50;74.30;;;;;;5056339;28;20085;-58
2024/02/15 02:36:29;;;;;;;70.57;20.10;;;18.40;74.60;;;;;;5055348;28;20099;-59
2024/02/15 02:39:00;;;;;;;55.30;8.02;;;18.40;75.00;;;;;;5060544;28;20101;-59
2024/02/15 02:41:28;;;;;;;69.95;8.70;;;18.40;75.20;;;;;;5065240;28;20081;-58
2024/02/15 02:43:57;;;;;;;53.17;9.85;;;18.20;75.40;;;;;;5060609;28;20540;-58
2024/02/15 02:46:23;;;;;;;80.55;10.07;;;18.10;75.80;;;;;;5060005;28;20080;-58
2024/02/15 02:48:50;;;;;;;49.80;8.88;;;18.10;76.60;;;;;;5062596;28;20073;-58
2024/02/15 02:51:17;;;;;;;60.90;8.10;;;18.00;76.50;;;;;;5061293;28;20080;-59
2024/02/15 02:53:44;;;;;;;50.50;6.70;;;18.00;76.60;;;;;;5060101;28;20121;-59
2024/02/15 02:56:10;;;;;;;53.30;10.10;;;18.00;76.20;;;;;;5061543;28;20085;-59
2024/02/15 02:58:37;;;;;;;38.33;6.63;;;18.10;76.30;;;;;;5063730;28;20109;-59
2024/02/15 03:01:03;;;;;;;47.55;6.95;;;18.10;76.10;;;;;;5062240;28;20079;-57
2024/02/15 03:03:30;;;;;;;59.13;6.90;;;18.10;75.70;;;;;;5061179;28;20089;-58
2024/02/15 03:05:56;;;;;;;52.60;8.23;;;18.10;75.30;;;;;;5064082;28;20077;-58
2024/02/15 03:08:23;;;;;;;52.28;7.50;;;18.10;75.10;;;;;;5059528;28;20080;-59
2024/02/15 03:10:51;;;;;;;37.90;6.93;;;18.20;75.10;;;;;;5061155;28;20126;-58
2024/02/15 03:13:18;;;;;;;54.35;7.07;;;18.10;75.00;;;;;;5062333;28;20100;-58
2024/02/15 03:15:48;;;;;;;53.83;7.75;;;18.10;75.30;;;;;;5061195;28;20134;-58
2024/02/15 03:18:18;;;;;;;60.42;10.10;;;18.00;75.40;;;;;;5064028;28;20105;-66
2024/02/15 03:20:45;;;;;;;53.10;8.70;;;18.00;75.30;;;;;;5057480;28;20540;-61
2024/02/15 03:23:12;;;;;;;47.28;9.38;;;17.90;75.00;;;;;;5063931;28;20078;-60
2024/02/15 03:25:38;;;;;;;65.03;9.10;;;17.90;75.50;;;;;;5058169;28;20069;-59
2024/02/15 03:28:05;;;;;;;73.28;9.15;;;17.90;75.50;;;;;;5059926;28;20127;-59
2024/02/15 03:30:36;;;;;;;52.20;9.52;;;17.90;75.80;;;;;;5062202;28;20172;-58
2024/02/15 03:33:05;;;;;;;54.72;9.75;;;17.80;75.90;;;;;;5061418;28;20080;-60
2024/02/15 03:35:31;;;;;;;49.05;9.63;;;17.70;76.00;;;;;;5059517;28;20537;-59
2024/02/15 03:37:58;;;;;;;60.60;10.32;;;17.70;76.30;;;;;;5060894;28;20084;-59
2024/02/15 03:40:30;;;;;;;85.10;13.45;;;17.60;76.30;;;;;;5060534;28;20101;-60
2024/02/15 03:42:56;;;;;;;69.55;13.48;;;17.60;76.30;;;;;;5062612;28;20080;-58
2024/02/15 03:45:26;;;;;;;69.90;13.13;;;17.50;76.70;;;;;;5059155;28;20107;-60
2024/02/15 03:47:53;;;;;;;71.85;14.82;;;17.50;76.80;;;;;;5058482;28;20081;-60
2024/02/15 03:50:21;;;;;;;83.20;15.15;;;17.40;77.30;;;;;;5061554;28;20085;-58
2024/02/15 03:52:48;;;;;;;63.38;15.15;;;17.40;76.50;;;;;;5062289;28;20113;-59
2024/02/15 03:55:15;;;;;;;97.00;15.77;;;17.40;76.50;;;;;;5064270;28;20092;-59
2024/02/15 03:57:43;;;;;;;82.05;15.23;;;17.40;76.00;;;;;;5062994;28;20083;-59
2024/02/15 04:00:11;;;;;;;90.40;16.45;;;17.40;75.60;;;;;;5064123;28;20120;-59
2024/02/15 04:02:40;;;;;;;69.82;16.17;;;17.40;75.70;;;;;;5062690;28;20084;-59
2024/02/15 04:05:09;;;;;;;65.07;14.50;;;17.40;76.10;;;;;;5066401;28;20126;-58
2024/02/15 04:07:36;;;;;;;61.55;13.30;;;17.30;76.30;;;;;;5061272;28;20077;-59
2024/02/15 04:10:04;;;;;;;68.40;13.63;;;17.30;76.80;;;;;;5064153;28;20594;-58
2024/02/15 04:12:31;;;;;;;71.18;14.38;;;17.30;77.30;;;;;;5063204;28;20101;-59
2024/02/15 04:15:05;;;;;;;61.38;12.90;;;17.20;77.70;;;;;;5064289;28;20077;-59
2024/02/15 04:17:34;;;;;;;52.53;11.90;;;17.10;78.10;;;;;;5062122;28;20077;-60
2024/02/15 04:20:03;;;;;;;65.20;13.45;;;17.00;78.40;;;;;;5061287;28;20570;-59
2024/02/15 04:22:37;;;;;;;66.90;13.57;;;16.90;78.90;;;;;;5061849;28;20159;-59
2024/02/15 04:25:16;;;;;;;82.55;15.60;;;16.80;79.30;;;;;;5066195;28;20575;-59
2024/02/15 04:27:42;;;;;;;77.53;14.60;;;16.70;79.70;;;;;;5064043;28;20528;-59
2024/02/15 04:30:10;;;;;;;65.28;14.00;;;16.70;79.80;;;;;;5063352;28;20081;-60
2024/02/15 04:32:37;;;;;;;49.78;13.30;;;16.70;80.20;;;;;;5066523;28;20130;-60
2024/02/15 04:35:05;;;;;;;63.13;14.57;;;16.70;80.00;;;;;;5064544;28;20543;-59
2024/02/15 04:37:31;;;;;;;70.57;14.60;;;16.60;80.10;;;;;;5061386;28;20077;-59
2024/02/15 04:40:07;;;;;;;60.22;15.30;;;16.60;80.10;;;;;;5065349;28;20185;-60
2024/02/15 04:42:34;;;;;;;74.43;16.05;;;16.60;80.50;;;;;;5060691;28;20083;-60
2024/02/15 04:45:01;;;;;;;62.80;16.20;;;16.50;80.90;;;;;;5059996;28;20539;-59
2024/02/15 04:47:29;;;;;;;55.38;16.05;;;16.60;81.10;;;;;;5062057;28;20073;-59
2024/02/15 04:49:56;;;;;;;63.08;17.42;;;16.60;81.20;;;;;;5064577;28;20528;-59
2024/02/15 04:52:23;;;;;;;62.97;16.67;;;16.60;81.20;;;;;;5065248;28;20077;-59
2024/02/15 04:54:50;;;;;;;68.53;16.38;;;16.60;81.30;;;;;;5064685;28;20147;-59
2024/02/15 04:57:17;;;;;;;55.78;17.60;;;16.60;81.50;;;;;;5064638;28;20069;-59
2024/02/15 04:59:47;;;;;;;65.50;25.58;;;16.60;81.90;;;;;;5065371;28;20191;-59
2024/02/15 05:02:13;;;;;;;59.83;17.27;;;16.50;82.00;;;;;;5062976;28;20537;-59
2024/02/15 05:04:42;;;;;;;61.78;17.33;;;16.40;83.20;;;;;;5062336;28;20093;-59
2024/02/15 05:07:10;;;;;;;64.55;19.52;;;16.30;82.90;;;;;;5065115;28;20077;-60
2024/02/15 05:09:36;;;;;;;59.28;20.02;;;16.20;83.30;;;;;;5061090;28;20594;-58
2024/02/15 05:12:05;;;;;;;49.30;20.20;;;16.10;84.20;;;;;;5060793;28;20073;-59
2024/02/15 05:14:32;;;;;;;56.38;18.88;;;16.10;84.80;;;;;;5062866;28;20087;-60
2024/02/15 05:16:59;;;;;;;56.60;18.65;;;16.00;85.80;;;;;;5061772;28;20185;-59
2024/02/15 05:19:25;;;;;;;54.67;17.08;;;15.90;86.30;;;;;;5062747;28;20104;-60
2024/02/15 05:21:52;;;;;;;45.67;18.85;;;15.90;86.70;;;;;;5065596;28;20081;-59
2024/02/15 05:24:19;;;;;;;69.03;22.05;;;15.80;87.70;;;;;;5065485;28;20101;-59
2024/02/15 05:26:50;;;;;;;57.83;20.42;;;15.60;88.10;;;;;;5064325;28;20646;-59
2024/02/15 05:29:16;;;;;;;55.72;19.77;;;15.50;88.70;;;;;;5066643;28;20408;-59
2024/02/15 05:31:43;;;;;;;62.53;20.75;;;15.40;89.30;;;;;;5061574;28;20072;-60
2024/02/15 05:34:11;;;;;;;66.45;20.77;;;15.40;90.00;;;;;;5061864;28;20078;-59
2024/02/15 05:36:38;;;;;;;63.45;22.30;;;15.40;90.20;;;;;;5063235;28;20701;-59
2024/02/15 05:39:05;;;;;;;89.35;23.60;;;15.40;90.50;;;;;;5057642;28;20104;-70
2024/02/15 05:41:34;;;;;;;77.72;23.60;;;15.40;90.60;;;;;;5069084;28;20076;-60
2024/02/15 05:44:04;;;;;;;80.60;22.83;;;15.30;90.90;;;;;;5067747;28;20596;-61
2024/02/15 05:46:31;;;;;;;75.55;23.73;;;15.30;91.10;;;;;;5068765;28;20088;-59
2024/02/15 05:48:57;;;;;;;79.93;24.30;;;15.20;91.20;;;;;;5068244;28;20073;-59
2024/02/15 05:51:24;;;;;;;65.57;23.83;;;15.20;92.00;;;;;;5065632;28;20077;-68
2024/02/15 05:53:50;;;;;;;79.47;24.40;;;15.20;92.50;;;;;;5067928;28;20105;-63
2024/02/15 05:56:16;;;;;;;59.83;25.20;;;15.10;92.80;;;;;;5062312;28;20111;-62
2024/02/15 05:58:43;;;;;;;70.13;24.30;;;15.20;92.80;;;;;;5067266;28;20108;-63
2024/02/15 06:01:12;;;;;;;71.22;27.23;;;15.20;92.70;;;;;;5067979;28;20088;-62
2024/02/15 06:03:40;;;;;;;90.03;25.90;;;15.10;92.90;;;;;;5068438;28;20698;-62
2024/02/15 06:06:07;;;;;;;80.70;24.08;;;15.10;92.80;;;;;;5073384;28;20077;-62
2024/02/15 06:08:37;;;;;;;82.35;26.88;;;15.10;92.60;;;;;;5063745;28;20080;-62
2024/02/15 06:11:09;;;;;;;84.95;32.30;;;15.20;92.70;;;;;;5065104;28;20533;-62
2024/02/15 06:13:35;;;;;;;80.03;28.30;;;15.20;92.80;;;;;;5062467;28;20093;-62
2024/02/15 06:16:03;;;;;;;72.90;24.85;;;15.20;93.10;;;;;;5065389;28;20073;-61
2024/02/15 06:18:32;;;;;;;60.28;22.58;;;15.20;93.20;;;;;;5066870;28;20077;-62
2024/02/15 06:21:00;;;;;;;63.42;21.17;;;15.10;93.70;;;;;;5066456;28;20120;-63
2024/02/15 06:23:27;;;;;;;67.53;22.17;;;15.10;94.00;;;;;;5066622;28;20096;-64
2024/02/15 06:25:57;;;;;;;61.88;24.30;;;15.00;94.20;;;;;;5065965;28;20464;-63
2024/02/15 06:39:44;;;;;;;77.47;32.88;;;14.80;94.70;;;;;;5067198;28;20119;-61
2024/02/15 06:42:14;;;;;;;78.80;39.38;;;14.80;94.60;;;;;;5067792;28;20492;-59
2024/02/15 06:44:41;;;;;;;81.85;31.60;;;14.70;94.80;;;;;;5066958;28;20073;-61
2024/02/15 06:47:10;;;;;;;56.40;22.75;;;14.70;95.10;;;;;;5065284;28;20084;-61
2024/02/15 06:49:40;;;;;;;70.68;19.92;;;14.80;94.70;;;;;;5066444;28;20118;-60
2024/02/15 06:52:13;;;;;;;64.50;19.10;;;14.80;95.00;;;;;;5067833;28;20069;-61
2024/02/15 06:54:41;;;;;;;71.47;19.23;;;14.70;95.40;;;;;;5067082;28;20109;-61
2024/02/15 06:57:08;;;;;;;62.28;23.38;;;14.70;95.90;;;;;;5067395;28;20110;-62
2024/02/15 06:59:34;;;;;;;76.90;20.35;;;14.50;95.70;;;;;;5067208;28;20093;-63
2024/02/15 07:02:04;;;;;;;76.65;24.10;;;14.40;95.80;;;;;;5066822;28;20146;-62
2024/02/15 07:04:32;;;;;;;56.88;19.40;;;14.30;96.00;;;;;;5065956;28;20455;-62
2024/02/15 07:06:59;;;;;;;65.78;18.52;;;14.30;96.20;;;;;;5066907;28;20073;-61
2024/02/15 07:09:27;;;;;;;69.40;18.73;;;14.30;96.40;;;;;;5066416;28;20081;-61
2024/02/15 07:11:54;;;;;;;50.83;15.20;;;14.30;96.20;;;;;;5066476;28;20077;-61
2024/02/15 07:14:20;;;;;;;70.60;18.33;;;14.20;96.30;;;;;;5067287;28;20069;-62
2024/02/15 07:16:48;;;;;;;70.47;19.98;;;14.10;96.40;;;;;;5067455;28;20070;-62
2024/02/15 07:19:16;;;;;;;63.85;19.42;;;14.20;96.60;;;;;;5067149;28;20136;-62
2024/02/15 07:21:43;;;;;;;53.47;18.17;;;14.10;96.40;;;;;;5067583;28;20084;-62
2024/02/15 07:24:10;;;;;;;46.55;18.15;;;14.00;96.60;;;;;;5066373;28;20069;-62
2024/02/15 07:26:37;;;;;;;71.65;19.15;;;13.90;96.80;;;;;;5070393;28;20186;-62
2024/02/15 07:29:07;;;;;;;63.35;18.80;;;13.90;97.00;;;;;;5070728;28;20560;-62
2024/02/15 07:31:34;;;;;;;62.05;19.10;;;13.90;97.10;;;;;;5069817;28;20091;-63
2024/02/15 07:34:01;;;;;;;63.80;17.70;;;13.90;97.40;;;;;;5070487;28;20069;-62
2024/02/15 07:36:28;;;;;;;67.47;19.13;;;14.10;97.10;;;;;;5067074;28;20095;-61
2024/02/15 07:39:00;;;;;;;71.57;18.30;;;14.20;96.90;;;;;;5070646;28;20101;-62
2024/02/15 07:41:27;;;;;;;56.78;17.65;;;14.10;97.10;;;;;;5070629;28;20080;-61
2024/02/15 07:43:55;;;;;;;76.43;19.83;;;14.10;97.20;;;;;;5069235;28;20084;-62
2024/02/15 07:46:24;;;;;;;61.60;17.55;;;13.90;97.60;;;;;;5072220;28;20073;-62
2024/02/15 07:48:50;;;;;;;75.88;19.67;;;13.80;97.80;;;;;;5068517;28;20167;-62
2024/02/15 07:51:20;;;;;;;69.60;21.08;;;13.70;97.90;;;;;;5069710;28;20085;-62
2024/02/15 07:53:48;;;;;;;72.75;25.58;;;13.80;98.20;;;;;;5068411;28;20109;-62
2024/02/15 07:56:16;;;;;;;86.47;25.95;;;13.70;98.10;;;;;;5068882;28;20073;-62
2024/02/15 07:58:47;;;;;;;68.38;24.85;;;13.70;98.40;;;;;;5067491;28;20081;-62
2024/02/15 08:01:14;;;;;;;70.80;26.65;;;13.70;98.40;;;;;;5068683;28;20105;-62
2024/02/15 08:03:47;;;;;;;68.50;24.52;;;13.60;98.50;;;;;;5069134;28;20085;-62
2024/02/15 08:06:14;;;;;;;81.05;25.55;;;13.50;99.00;;;;;;5078109;28;20073;-62
2024/02/15 08:08:48;;;;;;;65.78;22.48;;;13.40;99.30;;;;;;5070305;28;20069;-62
2024/02/15 08:11:15;;;;;;;64.82;24.33;;;13.20;99.50;;;;;;5068555;28;20108;-63
2024/02/15 08:13:45;;;;;;;81.90;27.27;;;13.20;99.90;;;;;;5070274;28;20081;-62
2024/02/15 08:16:12;;;;;;;81.45;24.15;;;13.10;99.90;;;;;;5069449;28;20111;-63
2024/02/15 08:18:39;;;;;;;70.13;22.98;;;13.20;99.90;;;;;;5068955;28;20081;-62
2024/02/15 08:21:06;;;;;;;70.28;20.42;;;13.00;99.90;;;;;;5067030;28;20069;-62
2024/02/15 08:23:32;;;;;;;72.50;21.63;;;13.00;99.90;;;;;;5069737;28;20074;-62
2024/02/15 08:25:59;;;;;;;61.63;19.75;;;13.00;99.90;;;;;;5066910;28;20108;-61
2024/02/15 08:28:28;;;;;;;59.47;17.88;;;13.10;99.90;;;;;;5068955;28;20077;-62
2024/02/15 08:30:57;;;;;;;63.10;19.20;;;13.20;99.90;;;;;;5069849;28;20081;-61
2024/02/15 08:33:25;;;;;;;51.20;19.52;;;13.30;99.90;;;;;;5068419;28;20073;-62
2024/02/15 08:35:54;;;;;;;53.33;19.77;;;13.20;99.90;;;;;;5069471;28;20143;-62
2024/02/15 08:38:24;;;;;;;56.92;19.15;;;13.00;99.90;;;;;;5069116;28;20073;-62
2024/02/15 08:40:51;;;;;;;49.28;16.70;;;13.00;99.90;;;;;;5069577;28;20076;-62
2024/02/15 08:43:18;;;;;;;79.25;19.25;;;12.80;99.90;;;;;;5067901;28;20087;-61
2024/02/15 08:45:45;;;;;;;62.15;19.60;;;12.80;99.90;;;;;;5068287;28;20233;-61
2024/02/15 08:48:12;;;;;;;62.97;18.00;;;13.00;99.90;;;;;;5069816;28;20123;-62
2024/02/15 08:50:41;;;;;;;58.90;16.65;;;13.00;99.90;;;;;;5069420;28;20073;-61
2024/02/15 08:53:08;;;;;;;47.88;17.50;;;13.10;99.90;;;;;;5069405;28;20136;-61
2024/02/15 08:55:35;;;;;;;74.97;17.63;;;13.00;99.90;;;;;;5069073;28;20077;-61
2024/02/15 08:58:02;;;;;;;43.25;17.17;;;12.90;99.90;;;;;;5068641;28;20079;-62
2024/02/15 09:00:29;;;;;;;47.60;16.10;;;12.80;99.90;;;;;;5068789;28;20150;-62
2024/02/15 09:02:57;;;;;;;45.20;15.52;;;12.80;99.90;;;;;;5069205;28;20520;-61
2024/02/15 09:05:24;;;;;;;49.35;16.38;;;12.90;99.90;;;;;;5068997;28;20069;-62
2024/02/15 09:07:51;;;;;;;39.50;16.73;;;12.90;99.90;;;;;;5067734;28;20741;-61
2024/02/15 09:10:18;;;;;;;55.33;15.65;;;13.00;99.90;;;;;;5068943;28;20073;-61
2024/02/15 09:12:49;;;;;;;43.30;15.93;;;12.80;99.90;;;;;;5069025;28;20533;-61
2024/02/15 09:15:15;;;;;;;34.65;13.85;;;12.80;99.90;;;;;;5069464;28;20081;-61
2024/02/15 09:17:44;;;;;;;41.97;14.85;;;12.70;99.90;;;;;;5068981;28;20069;-61
2024/02/15 09:20:15;;;;;;;34.88;13.75;;;12.70;99.90;;;;;;5068875;28;20101;-61
2024/02/15 09:22:48;;;;;;;35.47;13.45;;;12.60;99.90;;;;;;5066870;28;20160;-62
2024/02/15 09:25:15;;;;;;;47.50;15.82;;;12.70;99.90;;;;;;5067514;28;20545;-61
2024/02/15 09:27:42;;;;;;;38.30;17.65;;;12.80;99.90;;;;;;5068175;28;20081;-62
2024/02/15 09:30:10;;;;;;;38.13;18.08;;;12.80;99.90;;;;;;5067280;28;20565;-62
2024/02/15 09:32:37;;;;;;;45.95;17.52;;;12.70;99.90;;;;;;5067680;28;20552;-61
2024/02/15 09:35:07;;;;;;;46.08;17.15;;;12.50;99.90;;;;;;5066750;28;20604;-61
2024/02/15 09:37:38;;;;;;;44.28;18.08;;;12.50;99.90;;;;;;5067916;28;20077;-61
2024/02/15 09:40:10;;;;;;;45.72;16.40;;;12.40;99.90;;;;;;5068195;28;20171;-61
2024/02/15 09:42:38;;;;;;;45.17;17.38;;;12.30;99.90;;;;;;5066927;28;20076;-62
2024/02/15 09:45:06;;;;;;;44.17;17.58;;;12.20;99.90;;;;;;5067925;28;20073;-61
2024/02/15 09:47:37;;;;;;;43.72;19.83;;;12.10;99.90;;;;;;5066352;28;20087;-62
2024/02/15 09:50:14;;;;;;;39.97;20.48;;;12.10;99.90;;;;;;5068785;28;20073;-63
2024/02/15 09:52:44;;;;;;;43.63;20.25;;;12.20;99.90;;;;;;5065635;28;20155;-62
2024/02/15 09:55:13;;;;;;;46.47;20.15;;;12.30;99.90;;;;;;5067797;28;20581;-61
2024/02/15 09:57:44;;;;;;;39.20;18.30;;;12.20;99.90;;;;;;5066972;28;20077;-61
2024/02/15 10:00:15;;;;;;;36.85;17.13;;;12.10;99.90;;;;;;5068110;28;20100;-61
2024/02/15 10:02:44;;;;;;;39.35;17.33;;;12.00;99.90;;;;;;5067005;28;20162;-63
2024/02/15 10:05:11;;;;;;;45.33;16.60;;;12.00;99.90;;;;;;5067577;28;20069;-63
2024/02/15 10:07:44;;;;;;;48.80;16.55;;;12.10;99.90;;;;;;5064962;28;20078;-61
2024/02/15 10:10:20;;;;;;;45.65;16.52;;;12.10;99.90;;;;;;5065589;28;20602;-61
2024/02/15 10:12:56;;;;;;;;;;;12.10;99.90;;;;;;5067580;28;20473;-62
2024/02/15 10:15:38;;;;;;;40.78;16.27;;;11.90;99.90;;;;;;5067583;28;19963;-61
2024/02/15 10:18:10;;;;;;;41.58;15.35;;;11.80;99.90;;;;;;5066223;28;20116;-60
2024/02/15 10:20:38;;;;;;;38.10;15.05;;;11.90;99.90;;;;;;5065315;28;20111;-61
2024/02/15 10:23:11;;;;;;;54.67;16.85;;;11.90;99.90;;;;;;5066734;28;20110;-61
2024/02/15 10:25:39;;;;;;;49.92;16.23;;;11.90;99.90;;;;;;5066959;28;20083;-62
2024/02/15 10:28:06;;;;;;;38.22;16.33;;;11.90;99.90;;;;;;5065063;28;20084;-62
2024/02/15 10:30:45;;;;;;;40.45;16.23;;;11.90;99.90;;;;;;5067701;28;20072;-62
2024/02/15 10:33:23;;;;;;;33.63;15.38;;;11.90;99.90;;;;;;5067061;28;20080;-62
2024/02/15 10:35:50;;;;;;;41.10;15.98;;;11.90;99.90;;;;;;5067668;28;20077;-62
2024/02/15 10:38:16;;;;;;;44.20;16.25;;;11.90;99.90;;;;;;5067556;28;20479;-62
2024/02/15 10:40:43;;;;;;;28.40;14.93;;;11.90;99.90;;;;;;5066829;28;20107;-61
2024/02/15 10:43:13;;;;;;;38.42;15.10;;;11.80;99.90;;;;;;5067559;28;20096;-61
2024/02/15 10:45:40;;;;;;;39.60;14.85;;;11.80;99.90;;;;;;5067942;28;20083;-63
2024/02/15 10:48:10;;;;;;;39.38;15.95;;;11.80;99.90;;;;;;5067707;28;20077;-62
2024/02/15 10:50:40;;;;;;;41.65;15.68;;;11.90;99.90;;;;;;5070659;28;20077;-61
2024/02/15 10:53:30;;;;;;;34.70;15.68;;;12.00;99.90;;;;;;5066591;28;20109;-62
2024/02/15 10:56:16;;;;;;;39.42;15.43;;;11.90;99.90;;;;;;5067553;28;20077;-62
2024/02/15 10:58:50;;;;;;;32.33;16.50;;;11.70;99.90;;;;;;5066164;28;20134;-62
2024/02/15 11:01:25;;;;;;;35.47;14.50;;;11.60;99.90;;;;;;5072050;28;20117;-62
2024/02/15 11:03:59;;;;;;;37.70;16.25;;;11.60;99.90;;;;;;5071008;28;20073;-63
2024/02/15 11:06:29;;;;;;;41.60;16.63;;;11.40;99.90;;;;;;5070485;28;20107;-62
2024/02/15 11:08:57;;;;;;;31.90;16.02;;;11.40;99.90;;;;;;5068426;28;20080;-61
2024/02/15 11:11:25;;;;;;;36.40;14.80;;;11.30;99.90;;;;;;5069882;28;20077;-62
2024/02/15 11:14:23;;;;;;;38.78;15.40;;;11.40;99.90;;;;;;5070981;28;20081;-62
2024/02/15 11:16:50;;;;;;;36.97;15.52;;;11.50;99.90;;;;;;5069207;28;20164;-61
2024/02/15 11:19:35;;;;;;;31.65;15.38;;;11.60;99.90;;;;;;5070418;28;20146;-62
2024/02/15 11:22:09;;;;;;;41.78;16.17;;;11.40;99.90;;;;;;5071011;28;20138;-61
2024/02/15 11:24:36;;;;;;;35.28;16.52;;;11.40;99.90;;;;;;5069693;28;20073;-63
2024/02/15 11:27:07;;;;;;;38.58;16.63;;;11.40;99.90;;;;;;5070712;28;20069;-61
2024/02/15 11:29:54;;;;;;;40.17;16.52;;;11.30;99.90;;;;;;5071390;28;20080;-61
2024/02/15 11:32:45;;;;;;;38.92;17.10;;;11.10;99.90;;;;;;5068954;28;20138;-61
2024/02/15 11:35:20;;;;;;;40.25;15.13;;;11.20;99.90;;;;;;5070438;28;20076;-61
2024/02/15 11:37:52;;;;;;;41.38;15.50;;;11.20;99.90;;;;;;5070162;28;20088;-62
2024/02/15 11:40:23;;;;;;;40.90;16.83;;;11.30;99.90;;;;;;5069717;28;20552;-62
2024/02/15 11:42:59;;;;;;;36.13;17.20;;;11.40;99.90;;;;;;5067042;28;20080;-62
2024/02/15 11:45:37;;;;;;;38.55;17.60;;;11.20;99.90;;;;;;5069784;28;20064;-63
2024/02/15 11:48:07;;;;;;;41.47;19.35;;;11.00;99.90;;;;;;5067258;28;20153;-62
2024/02/15 11:50:37;;;;;;;41.83;17.38;;;10.90;99.90;;;;;;5070041;28;20069;-63
2024/02/15 11:53:08;;;;;;;34.08;17.48;;;10.80;99.90;;;;;;5069259;28;20109;-62
2024/02/15 11:55:36;;;;;;;37.88;16.88;;;10.80;99.90;;;;;;5070197;28;20096;-61
2024/02/15 12:20:01;;;;;;;40.25;19.02;;;10.70;99.90;;;;;;5068542;28;20133;-62
2024/02/15 12:22:33;;;;;;;48.28;21.73;;;10.70;99.90;;;;;;5069482;28;20073;-61
2024/02/15 12:25:11;;;;;;;48.30;20.80;;;10.60;99.90;;;;;;5068041;28;20105;-61
2024/02/15 12:27:47;;;;;;;41.58;19.73;;;10.50;99.90;;;;;;5067853;28;20167;-62
2024/02/15 12:30:21;;;;;;;46.78;20.92;;;10.50;99.90;;;;;;5070033;28;20065;-61
2024/02/15 12:32:51;;;;;;;38.75;21.23;;;10.60;99.90;;;;;;5068969;28;20068;-61
2024/02/15 12:35:25;;;;;;;49.55;20.88;;;10.50;99.90;;;;;;5067562;28;20164;-61
2024/02/15 12:38:02;;;;;;;43.47;22.27;;;10.60;99.90;;;;;;5069001;28;20159;-62
2024/02/15 12:40:36;;;;;;;42.47;20.55;;;10.50;99.90;;;;;;5068374;28;20108;-61
2024/02/15 12:43:07;;;;;;;45.42;21.13;;;10.50;99.90;;;;;;5067830;28;20487;-61
2024/02/15 12:45:37;;;;;;;47.92;22.75;;;10.70;99.90;;;;;;5067758;28;20120;-62
2024/02/15 12:48:07;;;;;;;51.70;21.80;;;10.60;99.90;;;;;;5069893;28;20156;-62
2024/02/15 12:50:35;;;;;;;54.05;21.83;;;10.60;99.90;;;;;;5067542;28;20073;-62
2024/02/15 12:53:02;;;;;;;42.65;20.92;;;10.50;99.90;;;;;;5068618;28;20143;-61
2024/02/15 12:55:37;;;;;;;48.35;20.85;;;10.50;99.90;;;;;;5068052;28;20537;-63
2024/02/15 12:58:08;;;;;;;46.58;21.58;;;10.40;99.90;;;;;;5069326;28;20069;-61
2024/02/15 13:00:38;;;;;;;43.95;21.05;;;10.50;99.90;;;;;;5068539;28;20136;-62
2024/02/15 13:03:08;;;;;;;42.47;20.80;;;10.50;99.90;;;;;;5068363;28;20101;-62
2024/02/15 13:05:38;;;;;;;41.05;20.73;;;10.40;99.90;;;;;;5069145;28;20100;-62
2024/02/15 13:08:09;;;;;;;44.38;22.75;;;10.30;99.90;;;;;;5067886;28;20075;-62
2024/02/15 13:10:36;;;;;;;41.10;19.73;;;10.30;99.90;;;;;;5067808;28;20263;-61
2024/02/15 13:13:03;;;;;;;50.55;21.60;;;10.20;99.90;;;;;;5067853;28;20474;-61